Time;durP1;ratioP1;P1;durP2;ratioP2;P2;SDS_P1;SDS_P2;PMS_P1;PMS_P2;Temp;Humidity;BMP_temperature;BMP_pressure;BME280_temperature;BME280_humidity;BME280_pressure;Samples;Min_cycle;Max_cycle;Signal;HPM_P1;HPM_P2
2023/07/23 00:00:38;;;;;;;3.10;1.40;;;20.50;79.00;;;;;;4991318;28;20380;-83
2023/07/23 00:03:03;;;;;;;8.35;1.10;;;20.40;79.90;;;;;;4990802;28;20042;-83
2023/07/23 00:05:29;;;;;;;2.85;1.20;;;20.30;80.60;;;;;;4991938;28;20042;-83
2023/07/23 00:07:58;;;;;;;3.58;1.40;;;20.10;81.60;;;;;;4990586;28;20026;-83
2023/07/23 00:10:24;;;;;;;5.97;1.88;;;20.10;83.40;;;;;;4992018;28;20085;-83
2023/07/23 00:12:50;;;;;;;4.53;1.23;;;19.90;86.40;;;;;;4990840;28;20042;-84
2023/07/23 00:15:16;;;;;;;3.45;1.48;;;19.80;87.30;;;;;;4992245;28;20029;-83
2023/07/23 00:17:42;;;;;;;3.05;1.52;;;19.70;89.00;;;;;;4989420;28;20027;-82
2023/07/23 00:20:09;;;;;;;4.35;1.58;;;19.60;90.50;;;;;;4990656;28;20034;-84
2023/07/23 00:22:36;;;;;;;4.70;1.83;;;19.60;91.60;;;;;;4991221;28;20030;-83
2023/07/23 00:25:02;;;;;;;4.40;1.50;;;19.50;92.70;;;;;;4990915;28;20030;-83
2023/07/23 00:27:30;;;;;;;3.88;1.20;;;19.40;94.10;;;;;;4989322;28;20034;-84
2023/07/23 00:29:56;;;;;;;3.88;1.63;;;19.20;95.10;;;;;;4988842;28;20027;-84
2023/07/23 00:32:25;;;;;;;4.53;1.60;;;19.10;96.50;;;;;;4990086;28;20038;-83
2023/07/23 00:34:51;;;;;;;4.28;1.60;;;18.90;96.90;;;;;;4990169;28;20131;-87
2023/07/23 00:37:17;;;;;;;2.30;1.23;;;18.80;95.90;;;;;;4989894;28;20498;-84
2023/07/23 00:39:42;;;;;;;3.20;1.27;;;18.70;95.80;;;;;;4990064;28;20402;-86
2023/07/23 00:42:08;;;;;;;5.80;1.67;;;18.70;95.60;;;;;;4989851;28;20411;-85
2023/07/23 00:44:34;;;;;;;3.28;1.70;;;18.70;95.80;;;;;;4991080;28;20064;-86
2023/07/23 00:47:02;;;;;;;3.67;1.73;;;18.60;96.10;;;;;;4990718;28;20371;-85
2023/07/23 00:49:29;;;;;;;3.88;1.77;;;18.60;96.20;;;;;;4989776;28;20023;-87
2023/07/23 00:51:55;;;;;;;3.83;1.90;;;18.60;95.40;;;;;;4989462;28;20041;-85
2023/07/23 00:54:21;;;;;;;6.88;2.30;;;18.70;96.00;;;;;;4990373;28;20038;-85
2023/07/23 00:56:48;;;;;;;7.47;2.00;;;18.70;95.70;;;;;;4989273;28;20034;-85
2023/07/23 00:59:14;;;;;;;5.32;1.92;;;18.60;96.50;;;;;;4989005;28;20022;-85
2023/07/23 01:01:39;;;;;;;3.15;1.70;;;18.60;97.60;;;;;;4988722;28;20037;-85
2023/07/23 01:04:05;;;;;;;3.95;2.05;;;18.60;98.20;;;;;;4990083;28;20039;-85
2023/07/23 01:06:38;;;;;;;3.72;1.90;;;18.50;98.70;;;;;;4988684;28;20065;-85
2023/07/23 01:09:05;;;;;;;3.15;1.77;;;18.40;99.00;;;;;;4988819;28;20054;-85
2023/07/23 01:11:35;;;;;;;3.67;1.88;;;18.30;99.60;;;;;;4989574;28;20034;-83
2023/07/23 01:14:05;;;;;;;3.40;1.50;;;18.30;99.90;;;;;;4989442;28;20207;-85
2023/07/23 01:16:31;;;;;;;5.20;1.83;;;18.20;99.90;;;;;;4988158;28;20066;-86
2023/07/23 01:18:59;;;;;;;4.30;1.75;;;18.20;99.90;;;;;;4987700;28;20449;-85
2023/07/23 01:21:24;;;;;;;3.00;1.73;;;18.10;99.90;;;;;;4987916;28;20179;-85
2023/07/23 01:23:50;;;;;;;3.22;2.10;;;18.10;99.90;;;;;;4989276;28;20140;-84
2023/07/23 01:26:19;;;;;;;1.85;1.17;;;18.00;99.90;;;;;;4988363;28;20419;-85
2023/07/23 01:28:53;;;;;;;2.72;1.40;;;18.00;99.90;;;;;;4987955;28;20064;-83
2023/07/23 01:31:18;;;;;;;6.80;2.17;;;17.90;99.90;;;;;;4987137;28;20086;-86
2023/07/23 01:33:45;;;;;;;13.82;2.28;;;17.80;99.90;;;;;;4989602;28;20042;-85
2023/07/23 01:36:11;;;;;;;6.32;2.35;;;17.80;99.90;;;;;;4988408;28;20031;-85
2023/07/23 01:38:37;;;;;;;3.20;1.80;;;17.80;99.90;;;;;;4989455;28;20228;-86
2023/07/23 01:41:04;;;;;;;2.35;1.50;;;17.70;99.90;;;;;;4988511;28;20574;-87
2023/07/23 01:43:30;;;;;;;3.85;1.80;;;17.70;99.90;;;;;;4990192;28;20030;-87
2023/07/23 01:45:55;;;;;;;2.97;1.67;;;17.70;99.90;;;;;;4988791;28;20475;-87
2023/07/23 01:48:22;;;;;;;5.35;2.03;;;17.80;99.90;;;;;;4988962;28;20038;-86
2023/07/23 01:50:48;;;;;;;6.10;1.58;;;17.80;99.90;;;;;;4989984;28;20093;-86
2023/07/23 01:53:14;;;;;;;3.60;1.40;;;17.80;99.90;;;;;;4988445;28;20125;-87
2023/07/23 01:55:40;;;;;;;4.32;2.10;;;17.70;99.90;;;;;;4988489;28;20117;-85
2023/07/23 01:58:05;;;;;;;4.63;2.00;;;17.70;99.90;;;;;;4988817;28;20027;-86
2023/07/23 02:00:31;;;;;;;4.25;1.80;;;17.70;99.90;;;;;;4989765;28;20027;-86
2023/07/23 02:02:57;;;;;;;2.50;1.40;;;17.60;99.90;;;;;;4989795;28;20555;-85
2023/07/23 02:05:23;;;;;;;4.10;1.88;;;17.60;99.90;;;;;;4988136;28;20518;-85
2023/07/23 02:07:48;;;;;;;3.55;1.65;;;17.60;99.90;;;;;;4987973;28;20026;-84
2023/07/23 02:10:18;;;;;;;10.98;1.70;;;17.60;99.90;;;;;;4988991;28;20026;-85
2023/07/23 02:12:44;;;;;;;3.97;1.67;;;17.60;99.90;;;;;;4987790;28;20560;-86
2023/07/23 02:15:10;;;;;;;3.25;1.42;;;17.50;99.90;;;;;;4990077;28;20022;-87
2023/07/23 02:17:36;;;;;;;3.75;1.60;;;17.50;99.90;;;;;;4988934;28;20440;-86
2023/07/23 02:20:03;;;;;;;3.85;1.98;;;17.40;99.90;;;;;;4990189;28;20076;-87
2023/07/23 02:22:29;;;;;;;4.60;1.63;;;17.40;99.90;;;;;;4990285;28;20031;-86
2023/07/23 02:24:55;;;;;;;3.30;1.70;;;17.40;99.90;;;;;;4989951;28;20117;-87
2023/07/23 02:27:21;;;;;;;3.55;1.50;;;17.40;99.90;;;;;;4990162;28;20171;-87
2023/07/23 02:29:47;;;;;;;3.50;1.90;;;17.40;99.90;;;;;;4988920;28;20078;-87
2023/07/23 02:32:12;;;;;;;4.78;2.03;;;17.30;99.90;;;;;;4989802;28;20070;-89
2023/07/23 02:34:38;;;;;;;2.47;1.25;;;17.30;99.90;;;;;;4989649;28;20022;-86
2023/07/23 02:37:04;;;;;;;4.80;1.83;;;17.40;99.90;;;;;;4989853;28;20030;-87
2023/07/23 02:39:32;;;;;;;5.30;1.45;;;17.40;99.90;;;;;;4990693;28;20379;-86
2023/07/23 02:41:58;;;;;;;7.70;2.13;;;17.40;99.90;;;;;;4987617;28;20469;-85
2023/07/23 02:44:24;;;;;;;5.95;1.65;;;17.30;99.90;;;;;;4987935;28;20031;-88
2023/07/23 02:46:50;;;;;;;4.53;1.92;;;17.30;99.90;;;;;;4989365;28;20027;-86
2023/07/23 02:49:15;;;;;;;7.28;2.28;;;17.30;99.90;;;;;;4988924;28;20095;-87
2023/07/23 02:51:41;;;;;;;3.28;1.70;;;17.30;99.90;;;;;;4988203;28;20050;-86
2023/07/23 02:54:08;;;;;;;6.80;1.73;;;17.30;99.90;;;;;;4987831;28;20046;-86
2023/07/23 02:56:34;;;;;;;5.47;1.60;;;17.30;99.90;;;;;;4988563;28;20030;-87
2023/07/23 02:59:01;;;;;;;4.75;1.70;;;17.20;99.90;;;;;;4988628;28;20084;-86
2023/07/23 03:01:27;;;;;;;5.18;1.95;;;17.20;99.90;;;;;;4989520;28;20514;-88
2023/07/23 03:03:52;;;;;;;4.38;1.95;;;17.20;99.90;;;;;;4989016;28;20031;-87
2023/07/23 03:06:18;;;;;;;2.83;1.50;;;17.20;99.90;;;;;;4987665;28;20441;-87
2023/07/23 03:08:44;;;;;;;4.00;1.58;;;17.20;99.90;;;;;;4987250;28;20494;-86
2023/07/23 03:11:09;;;;;;;4.10;1.63;;;17.20;99.90;;;;;;4988873;28;20027;-87
2023/07/23 03:13:35;;;;;;;3.05;1.40;;;17.20;99.90;;;;;;4987934;28;20049;-87
2023/07/23 03:16:01;;;;;;;4.18;1.80;;;17.10;99.90;;;;;;4989171;28;20030;-87
2023/07/23 03:18:28;;;;;;;3.38;1.63;;;17.10;99.90;;;;;;4987605;28;20122;-87
2023/07/23 03:20:54;;;;;;;4.50;1.30;;;17.10;99.90;;;;;;4988404;28;20018;-86
2023/07/23 03:23:20;;;;;;;4.75;1.95;;;17.10;99.90;;;;;;4987298;28;20406;-86
2023/07/23 03:25:45;;;;;;;5.00;1.20;;;17.10;99.90;;;;;;4987107;28;20022;-85
2023/07/23 03:28:11;;;;;;;4.68;1.50;;;17.10;99.90;;;;;;4987576;28;20030;-85
2023/07/23 03:30:36;;;;;;;4.03;1.65;;;17.10;99.90;;;;;;4987901;28;20023;-84
2023/07/23 03:33:03;;;;;;;5.20;2.78;;;17.00;99.90;;;;;;4986316;28;20042;-85
2023/07/23 03:35:28;;;;;;;3.88;1.52;;;17.10;99.90;;;;;;4986296;28;20025;-88
2023/07/23 03:37:54;;;;;;;3.30;1.60;;;17.00;99.90;;;;;;4986503;28;20034;-88
2023/07/23 03:40:20;;;;;;;4.82;1.80;;;17.00;99.90;;;;;;4988781;28;20074;-87
2023/07/23 03:42:45;;;;;;;2.95;1.55;;;17.00;99.90;;;;;;4989377;28;20083;-88
2023/07/23 03:45:11;;;;;;;3.15;1.95;;;17.00;99.90;;;;;;4989780;28;20101;-88
2023/07/23 03:47:37;;;;;;;5.20;1.60;;;17.00;99.90;;;;;;4989737;28;20029;-88
2023/07/23 03:50:02;;;;;;;2.95;1.50;;;17.10;99.90;;;;;;4987619;28;20474;-85
2023/07/23 03:52:28;;;;;;;3.30;1.40;;;17.10;99.90;;;;;;4986407;28;20039;-84
2023/07/23 03:54:54;;;;;;;4.05;1.80;;;17.20;99.90;;;;;;4987305;28;20087;-86
2023/07/23 03:57:19;;;;;;;3.50;1.85;;;17.30;99.90;;;;;;4992451;28;20031;-86
2023/07/23 03:59:46;;;;;;;6.43;2.55;;;17.30;99.90;;;;;;4989677;28;20454;-85
2023/07/23 04:02:12;;;;;;;4.32;1.95;;;17.40;99.90;;;;;;4990269;28;20034;-88
2023/07/23 04:04:39;;;;;;;3.08;1.40;;;17.40;99.90;;;;;;4992033;28;20487;-87
2023/07/23 04:07:05;;;;;;;3.53;1.85;;;17.50;99.90;;;;;;4990379;28;20569;-85
2023/07/23 04:09:32;;;;;;;3.15;1.48;;;17.70;99.90;;;;;;4990036;28;20613;-81
2023/07/23 04:11:58;;;;;;;9.63;2.17;;;17.80;99.90;;;;;;4989281;28;20514;-81
2023/07/23 04:14:24;;;;;;;4.30;1.70;;;17.90;99.90;;;;;;4989581;28;20022;-80
2023/07/23 04:16:50;;;;;;;2.15;1.10;;;18.10;99.90;;;;;;4989546;28;20045;-80
2023/07/23 04:19:16;;;;;;;8.98;1.90;;;18.20;99.90;;;;;;4988245;28;20133;-80
2023/07/23 04:21:42;;;;;;;4.15;1.90;;;18.30;99.90;;;;;;4989406;28;20045;-81
2023/07/23 04:24:08;;;;;;;4.07;1.55;;;18.50;99.90;;;;;;4987838;28;20024;-79
2023/07/23 04:26:34;;;;;;;6.53;1.65;;;18.60;99.90;;;;;;4988196;28;20091;-82
2023/07/23 04:29:00;;;;;;;5.18;1.50;;;18.80;99.90;;;;;;4987843;28;20121;-82
2023/07/23 04:31:26;;;;;;;4.47;1.58;;;19.10;99.90;;;;;;4987955;28;20533;-80
2023/07/23 04:33:52;;;;;;;4.30;1.33;;;19.60;99.90;;;;;;4987512;28;20026;-81
2023/07/23 04:36:18;;;;;;;4.00;1.67;;;19.90;99.90;;;;;;4987651;28;20031;-80
2023/07/23 04:38:44;;;;;;;3.85;1.75;;;20.00;99.00;;;;;;4989018;28;20410;-79
2023/07/23 04:41:11;;;;;;;6.80;1.45;;;20.10;98.70;;;;;;4989002;28;20054;-79
2023/07/23 04:43:38;;;;;;;3.65;1.60;;;20.20;98.70;;;;;;4989046;28;20080;-81
2023/07/23 04:46:07;;;;;;;4.07;1.40;;;20.30;98.30;;;;;;4987823;28;20037;-81
2023/07/23 04:48:37;;;;;;;3.05;1.20;;;20.30;98.40;;;;;;4989342;28;20026;-79
2023/07/23 04:51:07;;;;;;;4.78;1.67;;;20.40;98.10;;;;;;4987673;28;20030;-78
2023/07/23 04:53:32;;;;;;;3.58;1.50;;;20.50;98.10;;;;;;4988976;28;20418;-78
2023/07/23 04:56:00;;;;;;;7.95;2.05;;;20.60;98.50;;;;;;4988132;28;20030;-77
2023/07/23 04:58:27;;;;;;;5.20;1.80;;;20.60;99.10;;;;;;4988977;28;20105;-78
2023/07/23 05:00:53;;;;;;;10.02;2.25;;;20.80;99.50;;;;;;4988829;28;20019;-78
2023/07/23 05:03:19;;;;;;;5.88;1.50;;;20.80;99.10;;;;;;4988665;28;20034;-80
2023/07/23 05:05:49;;;;;;;7.53;1.40;;;21.00;99.00;;;;;;4988490;28;20413;-78
2023/07/23 05:08:18;;;;;;;6.38;1.52;;;21.10;98.80;;;;;;4988731;28;20026;-79
2023/07/23 05:10:45;;;;;;;3.72;1.55;;;21.20;97.10;;;;;;4987256;28;20117;-79
2023/07/23 05:13:12;;;;;;;3.83;1.83;;;21.30;97.30;;;;;;4988710;28;20038;-80
2023/07/23 05:15:37;;;;;;;2.13;1.30;;;21.40;97.40;;;;;;4987576;28;20449;-79
2023/07/23 05:18:03;;;;;;;2.92;1.27;;;21.50;97.20;;;;;;4988501;28;20486;-80
2023/07/23 05:20:29;;;;;;;6.32;1.33;;;21.70;97.70;;;;;;4988679;28;20034;-80
2023/07/23 05:22:55;;;;;;;1.88;1.02;;;21.90;97.70;;;;;;4987292;28;20035;-80
2023/07/23 05:25:20;;;;;;;2.80;1.63;;;22.20;97.80;;;;;;4987203;28;20044;-80
2023/07/23 05:27:46;;;;;;;4.95;1.75;;;22.30;94.20;;;;;;4987047;28;20046;-80
2023/07/23 05:30:13;;;;;;;3.22;1.58;;;22.50;93.10;;;;;;4986915;28;20033;-80
2023/07/23 05:32:39;;;;;;;2.85;1.52;;;22.60;91.60;;;;;;4988085;28;20035;-80
2023/07/23 05:35:05;;;;;;;2.45;1.45;;;22.60;90.20;;;;;;4988340;28;20019;-80
2023/07/23 05:37:31;;;;;;;2.00;1.15;;;22.70;90.10;;;;;;4987040;28;20402;-80
2023/07/23 05:39:57;;;;;;;8.75;1.48;;;22.80;90.30;;;;;;4988137;28;20521;-80
2023/07/23 05:42:22;;;;;;;3.00;1.50;;;22.90;90.80;;;;;;4986863;28;20042;-80
2023/07/23 05:44:49;;;;;;;2.67;1.60;;;23.10;90.10;;;;;;4988296;28;20124;-80
2023/07/23 05:47:14;;;;;;;3.15;1.88;;;23.20;89.70;;;;;;4988546;28;20057;-80
2023/07/23 05:49:40;;;;;;;3.05;1.70;;;23.30;87.60;;;;;;4986856;28;20490;-80
2023/07/23 05:52:06;;;;;;;2.97;1.35;;;23.50;86.60;;;;;;4988085;28;20410;-80
2023/07/23 05:54:32;;;;;;;3.67;1.92;;;23.60;86.20;;;;;;4988379;28;20110;-79
2023/07/23 05:56:59;;;;;;;4.80;2.10;;;23.70;85.50;;;;;;4986724;28;20117;-78
2023/07/23 05:59:24;;;;;;;7.47;1.60;;;23.90;84.30;;;;;;4988105;28;20026;-80
2023/07/23 06:01:50;;;;;;;3.53;1.70;;;24.30;83.60;;;;;;4986399;28;20410;-80
2023/07/23 06:04:16;;;;;;;4.93;2.22;;;25.00;82.00;;;;;;4987844;28;20030;-80
2023/07/23 06:06:42;;;;;;;3.70;2.00;;;26.00;77.90;;;;;;4986423;28;20073;-80
2023/07/23 06:09:08;;;;;;;5.25;1.70;;;27.20;72.20;;;;;;4986439;28;20048;-80
2023/07/23 06:11:34;;;;;;;3.58;1.90;;;28.00;69.00;;;;;;4986368;28;20404;-81
2023/07/23 06:14:00;;;;;;;3.22;1.98;;;28.50;65.20;;;;;;4987658;28;20093;-80
2023/07/23 06:16:25;;;;;;;3.85;2.15;;;29.30;62.90;;;;;;4987465;28;20120;-80
2023/07/23 06:18:51;;;;;;;5.32;2.00;;;30.10;59.10;;;;;;4987033;28;20030;-80
2023/07/23 06:21:17;;;;;;;4.78;1.60;;;30.50;57.00;;;;;;4987429;28;20045;-80
2023/07/23 06:23:43;;;;;;;2.63;1.60;;;30.70;54.60;;;;;;4986117;28;20034;-80
2023/07/23 06:26:08;;;;;;;2.10;1.50;;;30.50;53.80;;;;;;4986376;28;20034;-80
2023/07/23 06:28:34;;;;;;;2.17;1.55;;;30.60;55.30;;;;;;4986096;28;20059;-80
2023/07/23 06:31:00;;;;;;;4.53;2.05;;;31.30;54.80;;;;;;4987255;28;20027;-81
2023/07/23 06:33:25;;;;;;;4.07;1.88;;;32.10;52.20;;;;;;4985992;28;20547;-80
2023/07/23 06:35:51;;;;;;;2.60;1.60;;;32.80;50.60;;;;;;4987388;28;20034;-81
2023/07/23 06:38:17;;;;;;;3.40;1.73;;;33.50;48.80;;;;;;4986106;28;20026;-79
2023/07/23 06:40:51;;;;;;;4.28;1.80;;;33.90;47.80;;;;;;4985186;28;20051;-80
2023/07/23 06:43:17;;;;;;;4.90;1.63;;;34.50;45.30;;;;;;4985913;28;20050;-79
2023/07/23 06:45:44;;;;;;;2.38;1.70;;;34.60;45.20;;;;;;4986017;28;20073;-79
2023/07/23 06:48:11;;;;;;;2.92;1.73;;;34.60;44.70;;;;;;4986088;28;20513;-80
2023/07/23 06:50:36;;;;;;;7.50;1.95;;;34.90;44.00;;;;;;4987338;28;20482;-80
2023/07/23 06:53:02;;;;;;;4.63;1.35;;;35.00;43.90;;;;;;4985999;28;20079;-80
2023/07/23 06:55:28;;;;;;;5.47;1.80;;;35.10;43.40;;;;;;4985545;28;20026;-80
2023/07/23 06:57:54;;;;;;;6.47;1.70;;;35.30;42.20;;;;;;4985656;28;20539;-79
2023/07/23 07:00:20;;;;;;;4.35;1.73;;;35.20;40.30;;;;;;4985711;28;20034;-79
2023/07/23 07:02:45;;;;;;;2.20;1.60;;;35.10;41.00;;;;;;4986960;28;20031;-79
2023/07/23 07:05:11;;;;;;;4.18;2.00;;;35.20;41.70;;;;;;4985409;28;20608;-78
2023/07/23 07:07:38;;;;;;;3.78;2.15;;;35.40;41.50;;;;;;4986968;28;20054;-80
2023/07/23 07:10:07;;;;;;;2.47;1.88;;;35.30;40.90;;;;;;4984050;28;20049;-79
2023/07/23 07:12:33;;;;;;;4.13;1.83;;;35.20;40.80;;;;;;4985326;28;20046;-79
2023/07/23 07:14:59;;;;;;;3.72;1.88;;;35.10;41.60;;;;;;4987002;28;20171;-79
2023/07/23 07:17:24;;;;;;;3.20;2.10;;;35.10;40.30;;;;;;4983822;28;20029;-81
2023/07/23 07:19:50;;;;;;;2.38;1.75;;;35.20;40.10;;;;;;4986770;28;20962;-79
2023/07/23 07:22:16;;;;;;;5.32;2.28;;;35.20;40.40;;;;;;4985609;28;20049;-79
2023/07/23 07:24:42;;;;;;;3.83;1.95;;;35.10;40.10;;;;;;4986841;28;20058;-80
2023/07/23 07:27:10;;;;;;;4.38;2.10;;;35.10;39.30;;;;;;4985667;28;20129;-81
2023/07/23 07:29:41;;;;;;;2.85;2.00;;;35.10;38.80;;;;;;4987297;28;20026;-80
2023/07/23 07:32:08;;;;;;;4.60;2.17;;;34.90;40.70;;;;;;4989997;28;20120;-81
2023/07/23 07:34:34;;;;;;;5.03;2.70;;;35.10;39.70;;;;;;4988780;28;20034;-80
2023/07/23 07:36:59;;;;;;;6.63;2.17;;;35.10;40.00;;;;;;4988650;28;20023;-80
2023/07/23 07:39:25;;;;;;;3.05;1.90;;;35.10;38.90;;;;;;4988679;28;20058;-80
2023/07/23 07:41:53;;;;;;;5.75;2.00;;;35.10;38.70;;;;;;4988313;28;20081;-80
2023/07/23 07:44:19;;;;;;;3.53;2.20;;;35.00;38.30;;;;;;4988585;28;20444;-80
2023/07/23 07:46:45;;;;;;;3.75;2.45;;;35.00;39.60;;;;;;4990047;28;20045;-81
2023/07/23 07:49:10;;;;;;;5.93;2.47;;;34.90;40.10;;;;;;4988366;28;20390;-80
2023/07/23 07:51:37;;;;;;;3.72;2.15;;;35.10;39.70;;;;;;4989872;28;20548;-81
2023/07/23 07:54:03;;;;;;;3.78;2.08;;;34.80;40.60;;;;;;4989812;28;20541;-80
2023/07/23 07:56:28;;;;;;;8.00;2.25;;;35.20;40.60;;;;;;4988526;28;20134;-80
2023/07/23 07:58:54;;;;;;;3.63;1.75;;;35.10;39.50;;;;;;4988048;28;20053;-80
2023/07/23 08:01:20;;;;;;;3.08;2.15;;;35.10;39.40;;;;;;4988369;28;20749;-80
2023/07/23 08:03:46;;;;;;;4.88;2.20;;;35.00;39.50;;;;;;4989484;28;20041;-79
2023/07/23 08:06:13;;;;;;;3.03;1.80;;;34.90;39.80;;;;;;4988431;28;20058;-80
2023/07/23 08:08:41;;;;;;;2.58;1.63;;;34.90;39.60;;;;;;4988240;28;20753;-80
2023/07/23 08:11:08;;;;;;;3.17;2.28;;;35.00;39.30;;;;;;4988111;28;20054;-80
2023/07/23 08:13:37;;;;;;;8.05;2.10;;;35.10;39.30;;;;;;4989620;28;20837;-80
2023/07/23 08:16:04;;;;;;;2.80;1.88;;;35.50;38.20;;;;;;4989381;28;20460;-80
2023/07/23 08:18:30;;;;;;;2.83;1.73;;;35.70;37.60;;;;;;4987943;28;20565;-81
2023/07/23 08:20:57;;;;;;;5.40;2.30;;;36.00;35.90;;;;;;4989314;28;20026;-81
2023/07/23 08:23:25;;;;;;;3.55;1.92;;;36.00;36.50;;;;;;4989283;28;20037;-80
2023/07/23 08:25:53;;;;;;;2.25;1.63;;;36.30;36.60;;;;;;4989297;28;20094;-81
2023/07/23 08:28:26;;;;;;;2.17;1.75;;;36.10;36.70;;;;;;4988006;28;20035;-79
2023/07/23 08:30:54;;;;;;;3.72;1.77;;;36.10;37.40;;;;;;4987885;28;20125;-81
2023/07/23 08:33:24;;;;;;;8.02;1.90;;;36.00;37.20;;;;;;4989189;28;20490;-81
2023/07/23 08:35:50;;;;;;;2.88;1.58;;;36.20;36.50;;;;;;4989164;28;20030;-79
2023/07/23 08:38:16;;;;;;;3.50;1.42;;;36.70;36.30;;;;;;4989027;28;20546;-79
2023/07/23 08:40:44;;;;;;;2.70;1.70;;;36.90;33.50;;;;;;4988292;28;20121;-80
2023/07/23 08:43:34;;;;;;;3.53;1.80;;;36.90;33.10;;;;;;4987515;28;20074;-80
2023/07/23 08:46:18;;;;;;;3.95;2.17;;;36.80;33.80;;;;;;4987868;28;20135;-81
2023/07/23 08:49:04;;;;;;;4.32;2.90;;;36.90;34.40;;;;;;4987684;28;20478;-81
2023/07/23 08:51:36;;;;;;;3.50;1.98;;;36.80;36.00;;;;;;4989081;28;20034;-81
2023/07/23 08:54:06;;;;;;;4.68;1.80;;;37.10;35.40;;;;;;4988866;28;20027;-80
2023/07/23 08:56:33;;;;;;;2.78;1.63;;;37.10;34.00;;;;;;4988799;28;20030;-80
2023/07/23 08:59:01;;;;;;;6.10;2.30;;;36.60;34.50;;;;;;4988864;28;20042;-80
2023/07/23 09:01:32;;;;;;;3.58;1.88;;;36.60;34.60;;;;;;4988545;28;20030;-81
2023/07/23 09:03:58;;;;;;;3.35;1.73;;;36.50;35.00;;;;;;4988549;28;20142;-81
2023/07/23 09:06:25;;;;;;;2.72;1.77;;;36.50;35.20;;;;;;4988291;28;20027;-81
2023/07/23 09:08:51;;;;;;;2.63;1.70;;;36.30;35.70;;;;;;4988587;28;20075;-80
2023/07/23 09:11:17;;;;;;;2.53;1.63;;;36.20;35.40;;;;;;4987375;28;20215;-81
2023/07/23 09:13:43;;;;;;;2.90;2.10;;;36.40;36.80;;;;;;4988444;28;20117;-80
2023/07/23 09:16:09;;;;;;;3.60;1.73;;;36.50;35.60;;;;;;4987362;28;20033;-80
2023/07/23 09:18:39;;;;;;;5.15;1.50;;;36.60;35.30;;;;;;4988605;28;20034;-81
2023/07/23 09:21:06;;;;;;;4.68;3.70;;;36.70;35.20;;;;;;4987115;28;20030;-81
2023/07/23 09:23:33;;;;;;;3.17;1.20;;;36.80;34.70;;;;;;4988509;28;20045;-81
2023/07/23 09:25:59;;;;;;;2.20;1.48;;;36.80;34.60;;;;;;4987293;28;20795;-80
2023/07/23 09:28:26;;;;;;;5.95;1.90;;;36.80;35.70;;;;;;4987150;28;20090;-81
2023/07/23 09:30:54;;;;;;;2.15;1.40;;;37.00;36.10;;;;;;4986950;28;20090;-80
2023/07/23 09:33:19;;;;;;;2.83;1.70;;;37.40;34.90;;;;;;4987060;28;20027;-81
2023/07/23 09:35:45;;;;;;;2.58;1.98;;;37.30;33.60;;;;;;4988308;28;20041;-80
2023/07/23 09:38:14;;;;;;;6.28;1.45;;;37.30;33.60;;;;;;4986858;28;20117;-81
2023/07/23 09:40:41;;;;;;;2.60;1.40;;;37.20;32.70;;;;;;4986490;28;20054;-81
2023/07/23 09:43:08;;;;;;;3.50;1.40;;;37.10;33.30;;;;;;4986633;28;20111;-80
2023/07/23 09:45:38;;;;;;;3.25;1.55;;;37.10;33.20;;;;;;4988291;28;20101;-81
2023/07/23 09:48:04;;;;;;;2.75;1.45;;;37.20;33.40;;;;;;4988046;28;20041;-81
2023/07/23 09:50:30;;;;;;;2.92;1.40;;;36.80;32.70;;;;;;4986823;28;20075;-80
2023/07/23 09:52:56;;;;;;;3.20;1.30;;;36.60;33.30;;;;;;4986715;28;20448;-80
2023/07/23 09:55:22;;;;;;;4.70;1.20;;;36.70;33.50;;;;;;4986607;28;20038;-81
2023/07/23 09:57:50;;;;;;;3.38;1.50;;;36.80;32.70;;;;;;4987183;28;20042;-81
2023/07/23 10:00:17;;;;;;;6.35;1.50;;;36.80;32.80;;;;;;4987529;28;20022;-80
2023/07/23 10:02:45;;;;;;;2.92;1.45;;;36.50;33.70;;;;;;4986257;28;20039;-81
2023/07/23 10:05:13;;;;;;;3.47;1.20;;;36.70;33.00;;;;;;4987628;28;20021;-81
2023/07/23 10:07:39;;;;;;;1.77;1.30;;;36.30;32.40;;;;;;4987647;28;20109;-81
2023/07/23 10:10:06;;;;;;;3.55;1.45;;;36.10;33.30;;;;;;4987826;28;20053;-81
2023/07/23 10:12:32;;;;;;;2.85;1.30;;;35.70;34.90;;;;;;4986414;28;20031;-80
2023/07/23 10:14:58;;;;;;;2.53;1.60;;;35.30;35.10;;;;;;4987370;28;20022;-81
2023/07/23 10:17:25;;;;;;;2.25;1.50;;;34.90;35.60;;;;;;4986320;28;20038;-80
2023/07/23 10:19:53;;;;;;;4.30;1.45;;;34.50;35.50;;;;;;4986142;28;20121;-80
2023/07/23 10:22:21;;;;;;;3.60;1.85;;;34.20;35.10;;;;;;4987301;28;20115;-80
2023/07/23 10:24:54;;;;;;;2.90;1.63;;;33.70;36.80;;;;;;4986761;28;20041;-80
2023/07/23 10:27:20;;;;;;;4.68;1.65;;;33.30;37.10;;;;;;4987858;28;20540;-79
2023/07/23 10:30:18;;;;;;;8.60;1.80;;;33.10;37.30;;;;;;4987359;28;20022;-80
2023/07/23 10:32:45;;;;;;;4.15;1.65;;;32.80;37.50;;;;;;4985882;28;20502;-80
2023/07/23 10:35:11;;;;;;;3.35;1.90;;;32.50;37.90;;;;;;4987330;28;20038;-80
2023/07/23 10:37:36;;;;;;;2.72;2.00;;;32.40;38.20;;;;;;4986117;28;20129;-80
2023/07/23 10:40:03;;;;;;;2.95;1.52;;;32.20;39.50;;;;;;4985911;28;20087;-81
2023/07/23 10:42:34;;;;;;;3.28;1.90;;;32.20;39.60;;;;;;4985854;28;20057;-80
2023/07/23 10:45:21;;;;;;;3.13;1.70;;;32.20;39.40;;;;;;4986025;28;20038;-81
2023/07/23 10:47:52;;;;;;;5.03;2.03;;;32.10;39.60;;;;;;4986332;28;20359;-80
2023/07/23 10:50:20;;;;;;;3.60;2.25;;;32.10;40.00;;;;;;4987351;28;20048;-80
2023/07/23 10:52:51;;;;;;;3.15;1.60;;;31.90;38.80;;;;;;4987433;28;20041;-80
2023/07/23 10:55:34;;;;;;;4.18;1.83;;;31.80;39.80;;;;;;4986011;28;20502;-80
2023/07/23 10:58:03;;;;;;;6.18;1.75;;;31.70;40.10;;;;;;4985825;28;20377;-81
2023/07/23 11:00:31;;;;;;;3.28;2.00;;;31.40;39.40;;;;;;4987046;28;20033;-80
2023/07/23 11:02:57;;;;;;;3.60;2.03;;;31.40;40.80;;;;;;4985617;28;20042;-80
2023/07/23 11:05:23;;;;;;;3.45;1.88;;;31.50;42.90;;;;;;4989867;28;20026;-81
2023/07/23 11:08:13;;;;;;;3.40;1.73;;;31.40;42.70;;;;;;4989009;28;20030;-80
2023/07/23 11:11:02;;;;;;;5.18;2.10;;;31.30;41.90;;;;;;4989116;28;20037;-80
2023/07/23 11:13:33;;;;;;;6.45;2.17;;;31.00;42.20;;;;;;4990531;28;20118;-80
2023/07/23 11:16:00;;;;;;;4.82;2.40;;;30.80;41.80;;;;;;4989279;28;20030;-81
2023/07/23 11:18:30;;;;;;;2.97;1.95;;;30.70;42.90;;;;;;4990504;28;20147;-79
2023/07/23 11:20:57;;;;;;;8.93;2.42;;;30.60;43.60;;;;;;4990793;28;20222;-80
2023/07/23 11:23:25;;;;;;;2.92;2.28;;;30.90;44.10;;;;;;4988945;28;20034;-81
2023/07/23 11:25:51;;;;;;;3.97;2.20;;;31.20;43.50;;;;;;4989217;28;20032;-81
2023/07/23 11:28:19;;;;;;;2.35;1.85;;;31.10;41.50;;;;;;4989185;28;20398;-80
2023/07/23 11:30:47;;;;;;;5.47;2.13;;;30.90;42.20;;;;;;4990048;28;20034;-81
2023/07/23 11:33:13;;;;;;;2.60;2.25;;;30.60;43.70;;;;;;4988884;28;20026;-80
2023/07/23 11:35:38;;;;;;;3.00;2.35;;;30.40;44.30;;;;;;4990233;28;20117;-81
2023/07/23 11:38:05;;;;;;;6.28;2.10;;;30.20;44.30;;;;;;4988746;28;20065;-81
2023/07/23 11:40:31;;;;;;;7.20;2.10;;;30.10;44.60;;;;;;4988550;28;20137;-81
2023/07/23 11:43:05;;;;;;;6.80;1.80;;;30.40;44.60;;;;;;4989832;28;20457;-80
2023/07/23 11:45:31;;;;;;;6.30;2.63;;;30.50;43.00;;;;;;4990013;28;20023;-81
2023/07/23 11:47:57;;;;;;;3.83;1.83;;;30.70;43.80;;;;;;4989890;28;20084;-80
2023/07/23 11:50:24;;;;;;;2.83;2.15;;;30.80;43.90;;;;;;4988706;28;20023;-81
2023/07/23 11:52:51;;;;;;;2.90;2.10;;;30.90;44.80;;;;;;4990026;28;20503;-81
2023/07/23 11:55:27;;;;;;;4.05;2.22;;;31.00;44.00;;;;;;4989487;28;20121;-80
2023/07/23 11:57:58;;;;;;;5.05;2.53;;;30.90;43.10;;;;;;4988329;28;20137;-81
2023/07/23 12:00:32;;;;;;;4.88;2.55;;;30.90;42.90;;;;;;4988359;28;20038;-81
2023/07/23 12:02:58;;;;;;;9.35;1.95;;;30.90;43.70;;;;;;4987277;28;20042;-80
2023/07/23 12:05:24;;;;;;;4.22;2.20;;;31.00;43.70;;;;;;4988197;28;20027;-81
2023/07/23 12:07:53;;;;;;;4.28;2.05;;;31.10;43.40;;;;;;4989732;28;20034;-81
2023/07/23 12:10:19;;;;;;;6.50;2.60;;;31.10;44.50;;;;;;4988411;28;20502;-81
2023/07/23 12:12:46;;;;;;;3.25;1.83;;;31.20;44.00;;;;;;4989527;28;20485;-80
2023/07/23 12:15:14;;;;;;;4.35;2.58;;;31.10;43.20;;;;;;4987542;28;20087;-80
2023/07/23 12:17:40;;;;;;;5.22;2.22;;;31.10;43.10;;;;;;4989522;28;20435;-80
2023/07/23 12:20:09;;;;;;;4.45;2.22;;;31.00;42.90;;;;;;4988174;28;20022;-81
2023/07/23 12:22:54;;;;;;;4.05;2.28;;;30.90;43.70;;;;;;4989363;28;20402;-81
2023/07/23 12:25:21;;;;;;;8.13;3.10;;;30.80;43.50;;;;;;4989001;28;20065;-80
2023/07/23 12:27:47;;;;;;;4.53;2.47;;;30.60;43.20;;;;;;4987998;28;20034;-80
2023/07/23 12:30:13;;;;;;;4.45;2.25;;;30.60;42.60;;;;;;4989247;28;20023;-79
2023/07/23 12:32:39;;;;;;;3.53;2.45;;;30.70;42.60;;;;;;4987791;28;20450;-82
2023/07/23 12:35:06;;;;;;;5.53;2.80;;;30.80;43.60;;;;;;4987919;28;20022;-79
2023/07/23 12:37:32;;;;;;;3.53;2.40;;;30.80;43.30;;;;;;4987870;28;20497;-80
2023/07/23 12:39:58;;;;;;;3.67;2.60;;;31.00;43.10;;;;;;4987902;28;20112;-81
2023/07/23 12:42:24;;;;;;;3.00;1.95;;;31.10;42.40;;;;;;4989114;28;20400;-80
2023/07/23 12:44:49;;;;;;;2.80;1.95;;;31.10;43.30;;;;;;4987862;28;20048;-81